createdAt,value
2023-04-24T00:02:12.189Z,13.80
2023-04-24T00:04:45.886Z,12.70
2023-04-24T00:07:14.117Z,12.70
2023-04-24T00:09:41.672Z,14.10
2023-04-24T00:12:09.233Z,14.50
2023-04-24T00:14:36.775Z,14.00
2023-04-24T00:17:04.252Z,12.60
2023-04-24T00:19:31.843Z,12.60
2023-04-24T00:21:59.059Z,12.70
2023-04-24T00:24:26.498Z,13.70
2023-04-24T00:26:53.578Z,12.10
2023-04-24T00:29:20.986Z,15.00
2023-04-24T00:31:48.238Z,12.60
2023-04-24T00:34:15.637Z,12.70
2023-04-24T00:36:42.641Z,12.60
2023-04-24T00:39:10.001Z,13.90
2023-04-24T00:41:37.259Z,12.60
2023-04-24T00:44:04.641Z,12.60
2023-04-24T00:46:32.620Z,12.60
2023-04-24T00:49:00.868Z,12.60
2023-04-24T00:51:28.489Z,14.00
2023-04-24T00:53:56.397Z,12.80
2023-04-24T00:56:24.408Z,12.40
2023-04-24T00:58:52.279Z,12.90
2023-04-24T01:01:22.997Z,13.70
2023-04-24T01:03:53.652Z,13.40
2023-04-24T01:06:21.433Z,12.80
2023-04-24T01:08:49.695Z,12.50
2023-04-24T01:11:17.036Z,12.50
2023-04-24T01:13:47.523Z,12.50
2023-04-24T01:16:16.318Z,12.50
2023-04-24T01:18:44.327Z,13.60
2023-04-24T01:21:16.063Z,12.50
2023-04-24T01:23:46.804Z,13.40
2023-04-24T01:26:17.697Z,14.60
2023-04-24T01:28:45.790Z,12.50
2023-04-24T01:33:42.708Z,12.40
2023-04-24T01:36:12.393Z,12.40
2023-04-24T01:38:39.867Z,14.50
2023-04-24T01:41:06.914Z,13.00
2023-04-24T01:43:34.256Z,12.30
2023-04-24T01:46:01.391Z,12.40
2023-04-24T01:48:29.064Z,12.30
2023-04-24T01:50:57.525Z,12.30
2023-04-24T01:53:24.901Z,12.30
2023-04-24T01:55:52.004Z,13.70
2023-04-24T01:58:19.366Z,13.80
2023-04-24T02:00:46.456Z,12.20
2023-04-24T02:03:15.569Z,12.20
2023-04-24T02:05:46.267Z,12.20
2023-04-24T02:08:13.676Z,14.10
2023-04-24T02:10:41.023Z,13.90
2023-04-24T02:13:08.572Z,12.10
2023-04-24T02:15:36.993Z,12.10
2023-04-24T02:18:04.658Z,14.40
2023-04-24T02:20:35.072Z,12.10
2023-04-24T02:23:02.764Z,12.10
2023-04-24T02:25:29.880Z,12.10
2023-04-24T02:27:57.176Z,12.10
2023-04-24T02:30:24.233Z,11.80
2023-04-24T02:32:51.613Z,14.30
2023-04-24T02:35:19.037Z,12.10
2023-04-24T02:37:46.421Z,14.30
2023-04-24T02:40:13.728Z,12.90
2023-04-24T02:42:41.098Z,12.00
2023-04-24T02:45:08.703Z,12.00
2023-04-24T02:47:36.128Z,12.10
2023-04-24T02:50:04.332Z,11.90
2023-04-24T02:54:59.267Z,12.00
2023-04-24T02:57:26.628Z,12.00
2023-04-24T02:59:53.867Z,14.10
2023-04-24T03:02:21.928Z,13.00
2023-04-24T03:07:17.189Z,11.60
2023-04-24T03:19:35.656Z,12.00
2023-04-24T03:22:10.679Z,12.10
2023-04-24T03:24:38.919Z,12.10
2023-04-24T03:27:06.556Z,13.40
2023-04-24T03:29:47.551Z,13.80
2023-04-24T03:32:16.302Z,12.00
2023-04-24T03:34:43.685Z,12.80
2023-04-24T03:37:16.134Z,12.00
2023-04-24T03:39:51.439Z,12.30
2023-04-24T03:42:23.446Z,13.80
2023-04-24T03:44:55.302Z,12.00
2023-04-24T03:47:26.419Z,12.10
2023-04-24T03:49:57.009Z,12.00
2023-04-24T03:52:24.714Z,12.00
2023-04-24T03:54:52.308Z,12.00
2023-04-24T03:57:19.748Z,12.20
2023-04-24T04:02:27.815Z,12.10
2023-04-24T04:04:55.653Z,12.10
2023-04-24T04:07:23.045Z,12.10
2023-04-24T04:12:18.421Z,12.30
2023-04-24T04:14:47.711Z,12.20
2023-04-24T04:19:44.003Z,12.60
2023-04-24T04:22:11.694Z,11.90
2023-04-24T04:27:12.035Z,12.20
2023-04-24T04:29:47.762Z,14.00
2023-04-24T04:32:17.163Z,12.40
2023-04-24T04:34:46.514Z,12.40
2023-04-24T04:42:24.732Z,12.40
2023-04-24T04:47:25.357Z,13.10
2023-04-24T04:49:54.941Z,12.40
2023-04-24T04:52:27.659Z,12.60
2023-04-24T04:55:14.385Z,12.30
2023-04-24T04:58:06.104Z,12.70
2023-04-24T05:00:36.766Z,12.70
2023-04-24T05:03:19.102Z,12.70
2023-04-24T05:05:49.045Z,12.50
2023-04-24T05:08:26.581Z,13.60
2023-04-24T05:10:56.218Z,12.90
2023-04-24T05:15:55.186Z,13.70
2023-04-24T05:18:22.582Z,12.60
2023-04-24T05:20:50.539Z,13.10
2023-04-24T05:23:18.062Z,13.60
2023-04-24T05:25:48.452Z,13.20
2023-04-24T05:33:17.810Z,13.50
2023-04-24T05:35:47.539Z,14.30
2023-04-24T05:38:18.766Z,14.00
2023-04-24T05:40:46.341Z,13.40
2023-04-24T05:43:14.003Z,13.60
2023-04-24T05:45:41.323Z,14.90
2023-04-24T05:48:08.747Z,13.70
2023-04-24T05:50:37.198Z,13.80
2023-04-24T05:53:05.190Z,13.90
2023-04-24T05:55:35.360Z,14.00
2023-04-24T05:58:02.849Z,13.90
2023-04-24T06:00:31.177Z,14.50
2023-04-24T06:03:06.565Z,14.60
2023-04-24T06:05:33.937Z,14.90
2023-04-24T06:08:03.833Z,15.10
2023-04-24T06:10:37.144Z,15.20
2023-04-24T06:13:05.594Z,15.70
2023-04-24T06:15:35.281Z,15.80
2023-04-24T06:18:08.392Z,15.10
2023-04-24T06:23:05.015Z,15.80
2023-04-24T06:25:34.385Z,14.90
2023-04-24T06:28:02.852Z,15.30
2023-04-24T06:30:31.505Z,15.20
2023-04-24T06:33:09.296Z,16.00
2023-04-24T06:35:46.428Z,15.40
2023-04-24T06:38:13.778Z,16.20
2023-04-24T06:40:41.254Z,15.10
2023-04-24T06:50:32.074Z,16.20
2023-04-24T06:55:27.076Z,16.20
2023-04-24T06:57:54.471Z,16.70
2023-04-24T07:05:20.923Z,15.90
2023-04-24T07:10:17.860Z,15.80
2023-04-24T07:22:44.976Z,17.40
2023-04-24T07:25:12.503Z,16.90
2023-04-24T07:30:08.455Z,16.30
2023-04-24T07:37:31.378Z,17.00
2023-04-24T07:44:54.146Z,16.60
2023-04-24T07:47:22.890Z,16.30
2023-04-24T08:09:33.989Z,16.80
2023-04-24T08:12:02.380Z,16.40
2023-04-24T08:21:53.941Z,17.50
2023-04-24T08:24:21.098Z,16.90
2023-04-24T08:29:18.568Z,17.30
2023-04-24T08:31:46.017Z,17.40
2023-04-24T08:36:46.940Z,18.00
2023-04-24T08:39:15.368Z,17.50
2023-04-24T08:41:47.065Z,18.70
2023-04-24T08:44:16.766Z,17.50
2023-04-24T08:46:48.783Z,18.20
2023-04-24T08:49:20.682Z,18.20
2023-04-24T08:51:49.089Z,18.10
2023-04-24T08:54:16.338Z,17.70
2023-04-24T08:56:46.098Z,17.30
2023-04-24T09:01:42.390Z,17.10
2023-04-24T09:04:12.157Z,17.30
2023-04-24T09:14:03.393Z,17.00
2023-04-24T09:21:34.599Z,17.10
2023-04-24T09:24:05.078Z,17.00
2023-04-24T09:29:02.397Z,17.00
2023-04-24T09:31:30.804Z,16.90
2023-04-24T09:34:02.046Z,17.10
2023-04-24T09:36:35.467Z,17.50
2023-04-24T09:44:18.618Z,17.90
2023-04-24T09:46:50.777Z,17.90
2023-04-24T09:49:26.032Z,18.20
2023-04-24T09:54:23.047Z,18.30
2023-04-24T09:56:51.722Z,18.60
2023-04-24T09:59:20.808Z,19.00
2023-04-24T10:01:50.450Z,19.80
2023-04-24T10:04:26.269Z,19.90
2023-04-24T10:06:55.970Z,20.70
2023-04-24T10:09:25.779Z,21.00
2023-04-24T10:11:54.852Z,21.30
2023-04-24T10:14:24.371Z,20.90
2023-04-24T10:16:55.232Z,19.90
2023-04-24T10:24:22.261Z,19.80
2023-04-24T10:29:20.246Z,19.90
2023-04-24T10:34:18.794Z,20.40
2023-04-24T10:39:27.764Z,21.30
2023-04-24T10:44:37.556Z,21.70
2023-04-24T10:47:05.329Z,22.00
2023-04-24T10:49:33.226Z,23.20
2023-04-24T10:52:08.636Z,24.50
2023-04-24T10:54:43.434Z,26.00
2023-04-24T10:57:23.431Z,25.40
2023-04-24T11:00:10.681Z,24.20
2023-04-24T11:02:42.781Z,23.60
2023-04-24T11:05:12.046Z,22.60
2023-04-24T11:08:14.090Z,22.30
2023-04-24T11:11:00.802Z,21.80
2023-04-24T11:13:57.570Z,21.10
2023-04-24T11:16:24.822Z,20.80
2023-04-24T11:19:00.746Z,20.90
2023-04-24T11:21:43.114Z,20.70
2023-04-24T11:24:28.951Z,20.40
2023-04-24T11:26:57.942Z,20.10
2023-04-24T11:29:58.451Z,19.90
2023-04-24T11:32:31.910Z,20.00
2023-04-24T11:35:05.148Z,20.40
2023-04-24T11:37:43.206Z,21.30
2023-04-24T11:40:16.649Z,21.60
2023-04-24T11:42:48.277Z,21.40
2023-04-24T11:45:17.978Z,21.40
2023-04-24T11:47:46.220Z,21.20
2023-04-24T11:50:16.366Z,21.00
2023-04-24T11:52:48.304Z,20.80
2023-04-24T11:55:15.736Z,20.90
2023-04-24T11:57:47.086Z,21.40
2023-04-24T12:00:20.621Z,20.60
2023-04-24T12:02:49.083Z,20.90
2023-04-24T12:05:22.427Z,22.20
2023-04-24T12:10:22.907Z,20.50
2023-04-24T12:12:52.451Z,21.00
2023-04-24T12:17:55.762Z,21.10
2023-04-24T12:20:32.402Z,21.00
2023-04-24T12:23:01.937Z,21.30
2023-04-24T12:25:31.116Z,21.50
2023-04-24T12:28:04.161Z,21.80
2023-04-24T12:30:39.382Z,21.90
2023-04-24T12:35:36.762Z,21.60
2023-04-24T12:38:11.452Z,21.80
2023-04-24T12:43:16.745Z,21.50
2023-04-24T12:58:10.323Z,22.30
2023-04-24T13:00:38.465Z,21.90
2023-04-24T13:03:06.155Z,21.90
2023-04-24T13:05:33.770Z,21.50
2023-04-24T13:08:00.906Z,21.10
2023-04-24T13:10:28.957Z,20.90
2023-04-24T13:12:56.122Z,20.90
2023-04-24T13:17:51.933Z,19.70
2023-04-24T13:22:47.401Z,19.20
2023-04-24T13:25:18.010Z,18.50
2023-04-24T13:27:45.429Z,18.90
2023-04-24T13:30:13.231Z,19.60
2023-04-24T13:32:40.567Z,19.10
2023-04-24T13:35:08.512Z,19.10
2023-04-24T13:40:07.171Z,19.20
2023-04-24T13:42:35.183Z,19.10
2023-04-24T13:45:14.021Z,19.10
2023-04-24T13:47:52.044Z,19.30
2023-04-24T13:50:20.019Z,19.40
2023-04-24T13:52:47.128Z,19.30
2023-04-24T13:55:14.644Z,19.20
2023-04-24T13:57:41.940Z,19.30
2023-04-24T14:00:11.738Z,19.30
2023-04-24T14:02:39.418Z,19.40
2023-04-24T14:05:07.842Z,19.60
2023-04-24T14:07:35.120Z,19.60
2023-04-24T14:10:02.782Z,19.70
2023-04-24T14:14:57.919Z,19.80
2023-04-24T14:17:25.198Z,20.00
2023-04-24T14:19:57.394Z,20.10
2023-04-24T14:22:24.791Z,20.20
2023-04-24T14:24:52.526Z,20.30
2023-04-24T14:27:20.047Z,20.50
2023-04-24T14:29:47.968Z,20.40
2023-04-24T14:32:16.242Z,20.40
2023-04-24T14:34:43.926Z,20.60
2023-04-24T14:37:11.291Z,20.60
2023-04-24T14:39:38.850Z,20.60
2023-04-24T14:42:07.528Z,20.70
2023-04-24T14:44:35.168Z,20.80
2023-04-24T14:47:03.299Z,20.80
2023-04-24T14:49:31.913Z,20.90
2023-04-24T14:52:00.527Z,21.10
2023-04-24T14:54:28.505Z,21.00
2023-04-24T14:56:58.241Z,21.10
2023-04-24T14:59:27.056Z,20.90
2023-04-24T15:02:08.996Z,21.00
2023-04-24T15:04:44.152Z,20.90
2023-04-24T15:07:12.095Z,20.50
2023-04-24T15:09:40.555Z,20.50
2023-04-24T15:12:08.567Z,20.30
2023-04-24T15:14:36.317Z,20.10
2023-04-24T15:17:03.979Z,19.90
2023-04-24T15:19:32.900Z,20.00
2023-04-24T15:22:01.051Z,20.40
2023-04-24T15:24:29.142Z,19.80
2023-04-24T15:26:59.454Z,20.00
2023-04-24T15:29:29.089Z,20.00
2023-04-24T15:31:59.453Z,19.50
2023-04-24T15:34:27.451Z,19.80
2023-04-24T15:36:55.318Z,19.90
2023-04-24T15:39:26.271Z,19.90
2023-04-24T15:51:49.587Z,18.90
2023-04-24T15:54:17.378Z,18.40
2023-04-24T15:56:45.692Z,18.00
2023-04-24T16:01:42.411Z,18.90
2023-04-24T16:04:10.594Z,18.10
2023-04-24T16:06:38.566Z,18.30
2023-04-24T16:09:10.536Z,18.40
2023-04-24T16:14:10.500Z,18.40
2023-04-24T16:19:08.479Z,18.90
2023-04-24T16:21:35.952Z,18.10
2023-04-24T16:24:04.358Z,18.40
2023-04-24T16:26:32.067Z,19.00
2023-04-24T16:31:28.344Z,18.90
2023-04-24T16:33:56.416Z,17.90
2023-04-24T16:36:24.284Z,18.60
2023-04-24T16:38:52.468Z,18.40
2023-04-24T16:41:20.287Z,18.30
2023-04-24T16:43:48.016Z,18.10
2023-04-24T16:46:15.511Z,17.50
2023-04-24T16:48:43.310Z,17.30
2023-04-24T16:51:10.912Z,17.20
2023-04-24T16:53:39.454Z,17.00
2023-04-24T16:56:07.532Z,16.10
2023-04-24T17:01:05.014Z,15.60
2023-04-24T17:06:02.244Z,15.20
2023-04-24T17:08:32.977Z,15.30
2023-04-24T17:11:01.626Z,15.10
2023-04-24T17:15:57.741Z,15.00
2023-04-24T17:18:26.014Z,15.00
2023-04-24T17:20:53.792Z,14.90
2023-04-24T17:23:21.695Z,14.90
2023-04-24T17:25:49.790Z,14.80
2023-04-24T17:28:34.143Z,14.70
2023-04-24T17:31:01.743Z,14.70
2023-04-24T17:33:31.118Z,14.50
2023-04-24T17:36:01.896Z,14.50
2023-04-24T17:38:29.983Z,14.50
2023-04-24T17:40:58.545Z,14.50
2023-04-24T17:43:26.645Z,14.50
2023-04-24T17:45:59.471Z,14.10
2023-04-24T17:48:27.783Z,14.40
2023-04-24T17:50:55.172Z,14.40
2023-04-24T17:53:23.250Z,15.40
2023-04-24T17:55:50.603Z,14.20
2023-04-24T17:58:19.327Z,14.40
2023-04-24T18:00:47.393Z,14.40
2023-04-24T18:03:15.199Z,14.30
2023-04-24T18:05:42.437Z,14.30
2023-04-24T18:08:10.575Z,14.30
2023-04-24T18:10:37.924Z,14.10
2023-04-24T18:13:06.331Z,14.10
2023-04-24T18:15:35.905Z,14.10
2023-04-24T18:18:04.203Z,13.90
2023-04-24T18:20:34.266Z,13.80
2023-04-24T18:23:03.782Z,14.20
2023-04-24T18:25:31.798Z,13.70
2023-04-24T18:27:59.730Z,14.40
2023-04-24T18:30:28.304Z,13.60
2023-04-24T18:32:55.840Z,13.50
2023-04-24T18:35:23.697Z,13.50
2023-04-24T18:37:52.115Z,13.50
2023-04-24T18:40:19.995Z,13.50
2023-04-24T18:42:48.295Z,13.60
2023-04-24T18:45:15.703Z,13.50
2023-04-24T18:47:44.307Z,13.40
2023-04-24T18:50:12.150Z,13.40
2023-04-24T18:52:40.495Z,13.40
2023-04-24T18:55:07.975Z,12.70
2023-04-24T19:00:04.199Z,13.60
2023-04-24T19:02:34.587Z,12.90
2023-04-24T19:05:04.172Z,13.10
2023-04-24T19:07:32.380Z,13.60
2023-04-24T19:10:00.518Z,13.60
2023-04-24T19:12:28.328Z,14.00
2023-04-24T19:17:26.730Z,13.90
2023-04-24T19:19:54.108Z,13.60
2023-04-24T19:22:21.957Z,13.00
2023-04-24T19:24:49.448Z,13.40
2023-04-24T19:29:44.688Z,13.40
2023-04-24T19:32:13.416Z,12.70
2023-04-24T19:34:41.443Z,13.50
2023-04-24T19:37:09.892Z,12.60
2023-04-24T19:39:37.967Z,12.70
2023-04-24T19:44:35.509Z,12.50
2023-04-24T19:47:03.670Z,13.20
2023-04-24T19:49:32.384Z,13.30
2023-04-24T19:52:00.921Z,13.60
2023-04-24T19:54:28.899Z,12.80
2023-04-24T19:56:57.083Z,12.20
2023-04-24T19:59:24.584Z,13.00
2023-04-24T20:01:54.070Z,12.40
2023-04-24T20:04:23.582Z,12.80
2023-04-24T20:06:51.509Z,12.70
2023-04-24T20:09:19.026Z,12.80
2023-04-24T20:11:47.690Z,12.80
2023-04-24T20:14:14.815Z,12.80
2023-04-24T20:16:42.271Z,12.70
2023-04-24T20:19:09.490Z,12.70
2023-04-24T20:21:37.154Z,12.70
2023-04-24T20:24:06.770Z,13.50
2023-04-24T20:26:36.415Z,12.70
2023-04-24T20:29:04.950Z,12.60
2023-04-24T20:31:32.665Z,12.30
2023-04-24T20:33:59.865Z,13.90
2023-04-24T20:36:27.338Z,14.00
2023-04-24T20:38:54.680Z,12.90
2023-04-24T20:41:22.270Z,12.50
2023-04-24T20:43:53.496Z,12.50
2023-04-24T20:46:22.410Z,12.40
2023-04-24T20:48:49.895Z,13.50
2023-04-24T20:51:19.613Z,12.30
2023-04-24T20:53:49.517Z,12.20
2023-04-24T20:56:17.210Z,12.20
2023-04-24T20:58:48.800Z,12.30
2023-04-24T21:01:16.513Z,12.00
2023-04-24T21:03:44.258Z,14.20
2023-04-24T21:08:39.646Z,12.00
2023-04-24T21:11:07.035Z,12.40
2023-04-24T21:13:34.636Z,12.40
2023-04-24T21:16:02.155Z,12.30
2023-04-24T21:18:29.944Z,12.50
2023-04-24T21:20:57.517Z,12.30
2023-04-24T21:23:25.776Z,12.60
2023-04-24T21:25:53.391Z,12.50
2023-04-24T21:28:20.863Z,12.60
2023-04-24T21:30:48.240Z,13.20
2023-04-24T21:35:43.401Z,12.70
2023-04-24T21:38:10.481Z,12.40
2023-04-24T21:40:37.964Z,12.60
2023-04-24T21:43:05.317Z,12.60
2023-04-24T21:45:32.830Z,12.60
2023-04-24T21:48:01.664Z,12.60
2023-04-24T21:50:29.385Z,14.20
2023-04-24T21:52:56.732Z,12.60
2023-04-24T21:55:24.173Z,13.60
2023-04-24T21:57:53.383Z,12.70
2023-04-24T22:00:21.562Z,12.50
2023-04-24T22:02:49.680Z,12.50
2023-04-24T22:05:17.445Z,12.50
2023-04-24T22:07:46.064Z,12.50
2023-04-24T22:10:15.757Z,12.40
2023-04-24T22:12:43.743Z,13.90
2023-04-24T22:15:11.316Z,12.50
2023-04-24T22:17:39.625Z,12.50
2023-04-24T22:20:07.675Z,12.40
2023-04-24T22:22:36.084Z,12.40
2023-04-24T22:25:04.418Z,13.60
2023-04-24T22:27:31.543Z,12.30
2023-04-24T22:29:58.913Z,12.40
2023-04-24T22:32:26.164Z,14.00
2023-04-24T22:34:53.698Z,12.30
2023-04-24T22:37:21.391Z,12.30
2023-04-24T22:39:48.908Z,12.30
2023-04-24T22:42:16.149Z,12.30
2023-04-24T22:44:43.691Z,12.60
2023-04-24T22:47:11.004Z,12.20
2023-04-24T22:49:38.360Z,12.10
2023-04-24T22:52:05.615Z,12.10
2023-04-24T22:54:34.714Z,12.10
2023-04-24T22:57:03.685Z,13.90
2023-04-24T22:59:31.279Z,13.30
2023-04-24T23:01:59.480Z,12.00
2023-04-24T23:04:27.157Z,12.10
2023-04-24T23:06:54.360Z,12.20
2023-04-24T23:09:21.657Z,12.00
2023-04-24T23:11:48.794Z,12.00
2023-04-24T23:14:16.843Z,12.00
2023-04-24T23:16:45.351Z,12.00
2023-04-24T23:19:12.684Z,12.00
2023-04-24T23:21:39.846Z,12.00
2023-04-24T23:24:07.443Z,12.30
2023-04-24T23:29:04.420Z,11.90
2023-04-24T23:31:31.478Z,11.60
2023-04-24T23:34:00.250Z,11.90
2023-04-24T23:36:27.469Z,11.90
2023-04-24T23:38:55.065Z,11.90
2023-04-24T23:41:22.323Z,14.40
2023-04-24T23:43:50.437Z,11.90
2023-04-24T23:46:18.180Z,11.90
2023-04-24T23:48:45.887Z,12.60
2023-04-24T23:51:13.066Z,11.80
2023-04-24T23:53:40.721Z,11.80
2023-04-24T23:56:08.134Z,11.80
2023-04-24T23:58:36.859Z,11.80
